sensor_id;sensor_type;location;lat;lon;timestamp;P1;durP1;ratioP1;P2;durP2;ratioP2
59294;SDS011;45067;44.654;20.200;2023-06-22T00:01:28;31.05;;;24.65;;
59294;SDS011;45067;44.654;20.200;2023-06-22T00:03:54;29.50;;;24.60;;
59294;SDS011;45067;44.654;20.200;2023-06-22T00:06:21;27.85;;;22.80;;
59294;SDS011;45067;44.654;20.200;2023-06-22T00:08:48;29.40;;;23.35;;
59294;SDS011;45067;44.654;20.200;2023-06-22T00:11:14;26.65;;;22.40;;
59294;SDS011;45067;44.654;20.200;2023-06-22T00:13:40;30.45;;;21.90;;
59294;SDS011;45067;44.654;20.200;2023-06-22T00:16:06;27.30;;;21.85;;
59294;SDS011;45067;44.654;20.200;2023-06-22T00:18:32;23.92;;;21.35;;
59294;SDS011;45067;44.654;20.200;2023-06-22T00:20:58;25.83;;;23.02;;
59294;SDS011;45067;44.654;20.200;2023-06-22T00:23:25;23.85;;;21.08;;
59294;SDS011;45067;44.654;20.200;2023-06-22T00:25:51;28.50;;;21.95;;
59294;SDS011;45067;44.654;20.200;2023-06-22T00:28:17;25.88;;;23.15;;
59294;SDS011;45067;44.654;20.200;2023-06-22T00:30:43;25.65;;;22.88;;
59294;SDS011;45067;44.654;20.200;2023-06-22T00:33:10;26.75;;;23.73;;
59294;SDS011;45067;44.654;20.200;2023-06-22T00:35:36;25.75;;;21.95;;
59294;SDS011;45067;44.654;20.200;2023-06-22T00:38:02;28.23;;;22.42;;
59294;SDS011;45067;44.654;20.200;2023-06-22T00:40:33;27.75;;;23.38;;
59294;SDS011;45067;44.654;20.200;2023-06-22T00:45:25;27.98;;;23.85;;
59294;SDS011;45067;44.654;20.200;2023-06-22T00:47:52;28.52;;;22.48;;
59294;SDS011;45067;44.654;20.200;2023-06-22T00:50:20;38.38;;;31.88;;
59294;SDS011;45067;44.654;20.200;2023-06-22T00:52:56;35.88;;;28.92;;
59294;SDS011;45067;44.654;20.200;2023-06-22T00:55:23;29.90;;;25.38;;
59294;SDS011;45067;44.654;20.200;2023-06-22T00:57:51;30.20;;;24.88;;
59294;SDS011;45067;44.654;20.200;2023-06-22T01:00:20;27.60;;;23.70;;
59294;SDS011;45067;44.654;20.200;2023-06-22T01:02:49;30.77;;;25.00;;
59294;SDS011;45067;44.654;20.200;2023-06-22T01:05:20;28.80;;;25.02;;
59294;SDS011;45067;44.654;20.200;2023-06-22T01:12:47;29.50;;;24.23;;
59294;SDS011;45067;44.654;20.200;2023-06-22T01:15:16;31.50;;;25.60;;
59294;SDS011;45067;44.654;20.200;2023-06-22T01:20:10;33.58;;;26.48;;
59294;SDS011;45067;44.654;20.200;2023-06-22T01:25:33;30.60;;;25.67;;
59294;SDS011;45067;44.654;20.200;2023-06-22T01:28:10;33.17;;;26.08;;
59294;SDS011;45067;44.654;20.200;2023-06-22T01:30:40;31.23;;;26.73;;
59294;SDS011;45067;44.654;20.200;2023-06-22T01:33:07;29.42;;;24.70;;
59294;SDS011;45067;44.654;20.200;2023-06-22T01:35:37;29.55;;;24.98;;
59294;SDS011;45067;44.654;20.200;2023-06-22T01:38:03;28.30;;;24.20;;
59294;SDS011;45067;44.654;20.200;2023-06-22T01:40:29;27.27;;;23.08;;
59294;SDS011;45067;44.654;20.200;2023-06-22T01:42:55;28.45;;;24.23;;
59294;SDS011;45067;44.654;20.200;2023-06-22T01:45:22;26.70;;;23.83;;
59294;SDS011;45067;44.654;20.200;2023-06-22T01:47:48;27.20;;;24.17;;
59294;SDS011;45067;44.654;20.200;2023-06-22T01:50:14;26.75;;;22.58;;
59294;SDS011;45067;44.654;20.200;2023-06-22T01:52:40;30.80;;;23.73;;
59294;SDS011;45067;44.654;20.200;2023-06-22T01:55:06;27.63;;;22.77;;
59294;SDS011;45067;44.654;20.200;2023-06-22T01:57:33;28.88;;;22.55;;
59294;SDS011;45067;44.654;20.200;2023-06-22T02:00:00;26.70;;;21.58;;
59294;SDS011;45067;44.654;20.200;2023-06-22T02:02:39;29.00;;;21.92;;
59294;SDS011;45067;44.654;20.200;2023-06-22T02:05:08;27.77;;;22.40;;
59294;SDS011;45067;44.654;20.200;2023-06-22T02:07:39;26.67;;;22.30;;
59294;SDS011;45067;44.654;20.200;2023-06-22T02:10:07;24.83;;;21.58;;
59294;SDS011;45067;44.654;20.200;2023-06-22T02:12:33;25.80;;;21.77;;
59294;SDS011;45067;44.654;20.200;2023-06-22T02:15:00;25.92;;;22.05;;
59294;SDS011;45067;44.654;20.200;2023-06-22T02:17:27;25.95;;;20.77;;
59294;SDS011;45067;44.654;20.200;2023-06-22T02:19:53;25.73;;;21.50;;
59294;SDS011;45067;44.654;20.200;2023-06-22T02:22:19;27.33;;;21.70;;
59294;SDS011;45067;44.654;20.200;2023-06-22T02:24:45;25.33;;;21.85;;
59294;SDS011;45067;44.654;20.200;2023-06-22T02:27:11;24.40;;;21.25;;
59294;SDS011;45067;44.654;20.200;2023-06-22T02:29:37;24.02;;;20.65;;
59294;SDS011;45067;44.654;20.200;2023-06-22T02:32:03;28.45;;;22.58;;
59294;SDS011;45067;44.654;20.200;2023-06-22T02:34:30;26.60;;;21.55;;
59294;SDS011;45067;44.654;20.200;2023-06-22T02:36:57;28.25;;;22.23;;
59294;SDS011;45067;44.654;20.200;2023-06-22T02:39:27;27.88;;;22.02;;
59294;SDS011;45067;44.654;20.200;2023-06-22T02:41:53;26.98;;;22.02;;
59294;SDS011;45067;44.654;20.200;2023-06-22T02:44:20;24.55;;;20.92;;
59294;SDS011;45067;44.654;20.200;2023-06-22T02:46:46;26.52;;;21.90;;
59294;SDS011;45067;44.654;20.200;2023-06-22T02:49:13;26.55;;;21.80;;
59294;SDS011;45067;44.654;20.200;2023-06-22T02:51:41;30.30;;;22.02;;
59294;SDS011;45067;44.654;20.200;2023-06-22T02:54:07;27.33;;;21.50;;
59294;SDS011;45067;44.654;20.200;2023-06-22T02:56:33;24.02;;;21.13;;
59294;SDS011;45067;44.654;20.200;2023-06-22T02:59:01;25.52;;;21.48;;
59294;SDS011;45067;44.654;20.200;2023-06-22T03:01:27;24.20;;;20.30;;
59294;SDS011;45067;44.654;20.200;2023-06-22T03:03:55;22.63;;;20.08;;
59294;SDS011;45067;44.654;20.200;2023-06-22T03:06:21;23.55;;;20.88;;
59294;SDS011;45067;44.654;20.200;2023-06-22T03:08:51;23.52;;;20.92;;
59294;SDS011;45067;44.654;20.200;2023-06-22T03:11:17;23.65;;;21.27;;
59294;SDS011;45067;44.654;20.200;2023-06-22T03:13:43;25.95;;;20.45;;
59294;SDS011;45067;44.654;20.200;2023-06-22T03:16:11;23.80;;;20.13;;
59294;SDS011;45067;44.654;20.200;2023-06-22T03:18:37;26.75;;;20.25;;
59294;SDS011;45067;44.654;20.200;2023-06-22T03:21:03;28.52;;;20.70;;
59294;SDS011;45067;44.654;20.200;2023-06-22T03:23:30;24.25;;;19.30;;
59294;SDS011;45067;44.654;20.200;2023-06-22T03:25:56;22.98;;;20.33;;
59294;SDS011;45067;44.654;20.200;2023-06-22T03:28:22;24.45;;;19.98;;
59294;SDS011;45067;44.654;20.200;2023-06-22T03:30:48;24.63;;;20.58;;
59294;SDS011;45067;44.654;20.200;2023-06-22T03:33:14;31.25;;;20.15;;
59294;SDS011;45067;44.654;20.200;2023-06-22T03:35:40;25.67;;;20.30;;
59294;SDS011;45067;44.654;20.200;2023-06-22T03:38:07;27.77;;;23.52;;
59294;SDS011;45067;44.654;20.200;2023-06-22T03:40:33;22.77;;;20.35;;
59294;SDS011;45067;44.654;20.200;2023-06-22T03:42:59;25.92;;;20.27;;
59294;SDS011;45067;44.654;20.200;2023-06-22T03:45:25;26.60;;;20.92;;
59294;SDS011;45067;44.654;20.200;2023-06-22T03:47:51;41.95;;;31.33;;
59294;SDS011;45067;44.654;20.200;2023-06-22T03:50:18;30.42;;;24.20;;
59294;SDS011;45067;44.654;20.200;2023-06-22T03:52:45;24.95;;;22.30;;
59294;SDS011;45067;44.654;20.200;2023-06-22T03:55:12;31.98;;;28.63;;
59294;SDS011;45067;44.654;20.200;2023-06-22T03:57:38;29.45;;;23.08;;
59294;SDS011;45067;44.654;20.200;2023-06-22T04:00:04;26.63;;;20.65;;
59294;SDS011;45067;44.654;20.200;2023-06-22T04:02:31;24.05;;;19.52;;
59294;SDS011;45067;44.654;20.200;2023-06-22T04:04:57;26.83;;;21.00;;
59294;SDS011;45067;44.654;20.200;2023-06-22T04:07:23;22.95;;;20.55;;
59294;SDS011;45067;44.654;20.200;2023-06-22T04:09:49;22.33;;;19.92;;
59294;SDS011;45067;44.654;20.200;2023-06-22T04:12:15;21.92;;;19.55;;
59294;SDS011;45067;44.654;20.200;2023-06-22T04:14:41;21.08;;;18.00;;
59294;SDS011;45067;44.654;20.200;2023-06-22T04:17:07;26.27;;;19.63;;
59294;SDS011;45067;44.654;20.200;2023-06-22T04:19:33;24.95;;;19.05;;
59294;SDS011;45067;44.654;20.200;2023-06-22T04:21:59;24.15;;;18.25;;
59294;SDS011;45067;44.654;20.200;2023-06-22T04:24:25;23.10;;;18.73;;
59294;SDS011;45067;44.654;20.200;2023-06-22T04:26:51;24.73;;;17.92;;
59294;SDS011;45067;44.654;20.200;2023-06-22T04:29:20;23.08;;;18.10;;
59294;SDS011;45067;44.654;20.200;2023-06-22T04:31:46;25.70;;;18.45;;
59294;SDS011;45067;44.654;20.200;2023-06-22T04:34:15;21.38;;;19.08;;
59294;SDS011;45067;44.654;20.200;2023-06-22T04:36:42;22.05;;;18.20;;
59294;SDS011;45067;44.654;20.200;2023-06-22T04:39:09;24.52;;;18.23;;
59294;SDS011;45067;44.654;20.200;2023-06-22T04:41:36;22.60;;;18.90;;
59294;SDS011;45067;44.654;20.200;2023-06-22T04:44:09;21.70;;;18.85;;
59294;SDS011;45067;44.654;20.200;2023-06-22T04:46:35;23.45;;;18.50;;
59294;SDS011;45067;44.654;20.200;2023-06-22T04:49:03;25.67;;;18.88;;
59294;SDS011;45067;44.654;20.200;2023-06-22T04:51:31;26.77;;;19.45;;
59294;SDS011;45067;44.654;20.200;2023-06-22T04:53:57;24.77;;;18.67;;
59294;SDS011;45067;44.654;20.200;2023-06-22T04:56:26;22.52;;;18.50;;
59294;SDS011;45067;44.654;20.200;2023-06-22T04:58:55;26.45;;;19.25;;
59294;SDS011;45067;44.654;20.200;2023-06-22T05:01:22;24.73;;;19.15;;
59294;SDS011;45067;44.654;20.200;2023-06-22T05:03:49;31.63;;;21.00;;
59294;SDS011;45067;44.654;20.200;2023-06-22T05:06:15;23.15;;;18.77;;
59294;SDS011;45067;44.654;20.200;2023-06-22T05:08:41;20.92;;;18.58;;
59294;SDS011;45067;44.654;20.200;2023-06-22T05:11:07;25.10;;;19.05;;
59294;SDS011;45067;44.654;20.200;2023-06-22T05:13:33;24.52;;;18.92;;
59294;SDS011;45067;44.654;20.200;2023-06-22T05:15:59;24.85;;;18.38;;
59294;SDS011;45067;44.654;20.200;2023-06-22T05:18:29;25.92;;;18.95;;
59294;SDS011;45067;44.654;20.200;2023-06-22T05:20:55;24.00;;;18.83;;
59294;SDS011;45067;44.654;20.200;2023-06-22T05:23:21;24.77;;;18.23;;
59294;SDS011;45067;44.654;20.200;2023-06-22T05:25:47;26.08;;;19.50;;
59294;SDS011;45067;44.654;20.200;2023-06-22T05:28:13;25.05;;;18.90;;
59294;SDS011;45067;44.654;20.200;2023-06-22T05:30:40;24.92;;;18.10;;
59294;SDS011;45067;44.654;20.200;2023-06-22T05:33:06;19.98;;;17.15;;
59294;SDS011;45067;44.654;20.200;2023-06-22T05:35:32;27.55;;;19.25;;
59294;SDS011;45067;44.654;20.200;2023-06-22T05:37:58;26.15;;;18.75;;
59294;SDS011;45067;44.654;20.200;2023-06-22T05:40:24;22.70;;;19.02;;
59294;SDS011;45067;44.654;20.200;2023-06-22T05:42:50;23.88;;;19.27;;
59294;SDS011;45067;44.654;20.200;2023-06-22T05:45:16;24.83;;;19.58;;
59294;SDS011;45067;44.654;20.200;2023-06-22T05:47:42;22.73;;;20.15;;
59294;SDS011;45067;44.654;20.200;2023-06-22T05:50:09;24.52;;;20.33;;
59294;SDS011;45067;44.654;20.200;2023-06-22T05:52:35;20.65;;;18.13;;
59294;SDS011;45067;44.654;20.200;2023-06-22T05:55:02;21.92;;;17.13;;
59294;SDS011;45067;44.654;20.200;2023-06-22T05:57:28;25.33;;;16.20;;
59294;SDS011;45067;44.654;20.200;2023-06-22T05:59:54;18.83;;;16.77;;
59294;SDS011;45067;44.654;20.200;2023-06-22T06:02:20;21.23;;;15.57;;
59294;SDS011;45067;44.654;20.200;2023-06-22T06:04:46;18.95;;;16.73;;
59294;SDS011;45067;44.654;20.200;2023-06-22T06:07:12;19.30;;;16.13;;
59294;SDS011;45067;44.654;20.200;2023-06-22T06:09:38;16.50;;;14.50;;
59294;SDS011;45067;44.654;20.200;2023-06-22T06:12:04;16.75;;;15.00;;
59294;SDS011;45067;44.654;20.200;2023-06-22T06:14:30;17.08;;;13.98;;
59294;SDS011;45067;44.654;20.200;2023-06-22T06:16:56;17.58;;;15.15;;
59294;SDS011;45067;44.654;20.200;2023-06-22T06:19:22;15.77;;;14.07;;
59294;SDS011;45067;44.654;20.200;2023-06-22T06:21:48;16.77;;;14.90;;
59294;SDS011;45067;44.654;20.200;2023-06-22T06:24:15;16.77;;;14.27;;
59294;SDS011;45067;44.654;20.200;2023-06-22T06:26:41;14.57;;;13.07;;
59294;SDS011;45067;44.654;20.200;2023-06-22T06:29:07;16.55;;;14.07;;
59294;SDS011;45067;44.654;20.200;2023-06-22T06:31:33;15.63;;;13.90;;
59294;SDS011;45067;44.654;20.200;2023-06-22T06:34:00;15.30;;;13.70;;
59294;SDS011;45067;44.654;20.200;2023-06-22T06:36:26;18.73;;;13.98;;
59294;SDS011;45067;44.654;20.200;2023-06-22T06:38:52;18.42;;;13.48;;
59294;SDS011;45067;44.654;20.200;2023-06-22T06:41:18;21.52;;;15.27;;
59294;SDS011;45067;44.654;20.200;2023-06-22T06:43:46;17.77;;;14.52;;
59294;SDS011;45067;44.654;20.200;2023-06-22T06:46:12;17.52;;;14.85;;
59294;SDS011;45067;44.654;20.200;2023-06-22T06:48:38;19.00;;;14.48;;
59294;SDS011;45067;44.654;20.200;2023-06-22T06:51:05;20.67;;;14.73;;
59294;SDS011;45067;44.654;20.200;2023-06-22T06:53:34;15.52;;;14.02;;
59294;SDS011;45067;44.654;20.200;2023-06-22T06:56:00;15.02;;;13.43;;
59294;SDS011;45067;44.654;20.200;2023-06-22T06:58:26;17.25;;;14.20;;
59294;SDS011;45067;44.654;20.200;2023-06-22T07:00:53;17.20;;;13.73;;
59294;SDS011;45067;44.654;20.200;2023-06-22T07:03:19;15.50;;;13.85;;
59294;SDS011;45067;44.654;20.200;2023-06-22T07:05:45;15.30;;;13.50;;
59294;SDS011;45067;44.654;20.200;2023-06-22T07:08:11;17.50;;;14.95;;
59294;SDS011;45067;44.654;20.200;2023-06-22T07:10:37;15.60;;;14.00;;
59294;SDS011;45067;44.654;20.200;2023-06-22T07:13:04;16.40;;;13.90;;
59294;SDS011;45067;44.654;20.200;2023-06-22T07:15:30;16.08;;;14.32;;
59294;SDS011;45067;44.654;20.200;2023-06-22T07:17:56;16.23;;;14.23;;
59294;SDS011;45067;44.654;20.200;2023-06-22T07:20:22;16.60;;;14.93;;
59294;SDS011;45067;44.654;20.200;2023-06-22T07:22:48;16.83;;;14.65;;
59294;SDS011;45067;44.654;20.200;2023-06-22T07:25:14;15.68;;;14.07;;
59294;SDS011;45067;44.654;20.200;2023-06-22T07:27:44;16.58;;;14.63;;
59294;SDS011;45067;44.654;20.200;2023-06-22T07:30:11;19.02;;;13.05;;
59294;SDS011;45067;44.654;20.200;2023-06-22T07:32:37;17.02;;;12.73;;
59294;SDS011;45067;44.654;20.200;2023-06-22T07:35:03;14.18;;;12.73;;
59294;SDS011;45067;44.654;20.200;2023-06-22T07:37:30;15.18;;;12.70;;
59294;SDS011;45067;44.654;20.200;2023-06-22T07:39:58;14.10;;;11.93;;
59294;SDS011;45067;44.654;20.200;2023-06-22T07:42:27;13.45;;;12.05;;
59294;SDS011;45067;44.654;20.200;2023-06-22T07:44:57;13.75;;;12.30;;
59294;SDS011;45067;44.654;20.200;2023-06-22T07:47:23;13.95;;;12.20;;
59294;SDS011;45067;44.654;20.200;2023-06-22T07:49:53;15.80;;;12.90;;
59294;SDS011;45067;44.654;20.200;2023-06-22T07:52:20;12.77;;;11.48;;
59294;SDS011;45067;44.654;20.200;2023-06-22T07:54:46;15.00;;;11.77;;
59294;SDS011;45067;44.654;20.200;2023-06-22T07:57:13;14.52;;;12.40;;
59294;SDS011;45067;44.654;20.200;2023-06-22T07:59:39;13.75;;;12.00;;
59294;SDS011;45067;44.654;20.200;2023-06-22T08:02:05;13.95;;;12.23;;
59294;SDS011;45067;44.654;20.200;2023-06-22T08:04:33;13.55;;;11.90;;
59294;SDS011;45067;44.654;20.200;2023-06-22T08:06:59;13.93;;;12.50;;
59294;SDS011;45067;44.654;20.200;2023-06-22T08:09:27;14.77;;;12.52;;
59294;SDS011;45067;44.654;20.200;2023-06-22T08:11:54;14.60;;;11.90;;
59294;SDS011;45067;44.654;20.200;2023-06-22T08:14:21;13.65;;;12.13;;
59294;SDS011;45067;44.654;20.200;2023-06-22T08:16:48;13.88;;;12.27;;
59294;SDS011;45067;44.654;20.200;2023-06-22T08:19:14;15.13;;;12.50;;
59294;SDS011;45067;44.654;20.200;2023-06-22T08:21:40;13.65;;;12.27;;
59294;SDS011;45067;44.654;20.200;2023-06-22T08:24:06;13.77;;;12.15;;
59294;SDS011;45067;44.654;20.200;2023-06-22T08:26:32;16.00;;;12.60;;
59294;SDS011;45067;44.654;20.200;2023-06-22T08:29:02;13.73;;;12.38;;
59294;SDS011;45067;44.654;20.200;2023-06-22T08:31:28;14.23;;;12.73;;
59294;SDS011;45067;44.654;20.200;2023-06-22T08:33:54;15.15;;;12.60;;
59294;SDS011;45067;44.654;20.200;2023-06-22T08:36:20;17.33;;;13.00;;
59294;SDS011;45067;44.654;20.200;2023-06-22T08:38:46;15.30;;;12.95;;
59294;SDS011;45067;44.654;20.200;2023-06-22T08:41:16;16.00;;;12.02;;
59294;SDS011;45067;44.654;20.200;2023-06-22T08:43:43;13.85;;;11.68;;
59294;SDS011;45067;44.654;20.200;2023-06-22T08:46:09;12.95;;;11.65;;
59294;SDS011;45067;44.654;20.200;2023-06-22T08:48:36;13.57;;;12.18;;
59294;SDS011;45067;44.654;20.200;2023-06-22T08:51:02;16.38;;;12.63;;
59294;SDS011;45067;44.654;20.200;2023-06-22T08:53:28;13.57;;;11.75;;
59294;SDS011;45067;44.654;20.200;2023-06-22T08:55:54;16.30;;;12.05;;
59294;SDS011;45067;44.654;20.200;2023-06-22T08:58:20;13.25;;;11.13;;
59294;SDS011;45067;44.654;20.200;2023-06-22T09:00:47;13.40;;;11.98;;
59294;SDS011;45067;44.654;20.200;2023-06-22T09:03:13;14.15;;;12.13;;
59294;SDS011;45067;44.654;20.200;2023-06-22T09:05:40;15.65;;;11.77;;
59294;SDS011;45067;44.654;20.200;2023-06-22T09:08:06;14.73;;;11.85;;
59294;SDS011;45067;44.654;20.200;2023-06-22T09:10:32;22.73;;;10.43;;
59294;SDS011;45067;44.654;20.200;2023-06-22T09:12:58;10.90;;;9.65;;
59294;SDS011;45067;44.654;20.200;2023-06-22T09:15:24;11.20;;;9.30;;
59294;SDS011;45067;44.654;20.200;2023-06-22T09:17:50;11.10;;;9.90;;
59294;SDS011;45067;44.654;20.200;2023-06-22T09:20:19;12.38;;;10.65;;
59294;SDS011;45067;44.654;20.200;2023-06-22T09:22:45;13.65;;;10.65;;
59294;SDS011;45067;44.654;20.200;2023-06-22T09:25:11;16.63;;;13.32;;
59294;SDS011;45067;44.654;20.200;2023-06-22T09:27:37;13.95;;;11.07;;
59294;SDS011;45067;44.654;20.200;2023-06-22T09:30:03;19.85;;;13.25;;
59294;SDS011;45067;44.654;20.200;2023-06-22T09:32:30;14.75;;;13.00;;
59294;SDS011;45067;44.654;20.200;2023-06-22T09:34:56;12.75;;;10.85;;
59294;SDS011;45067;44.654;20.200;2023-06-22T09:37:22;17.45;;;14.40;;
59294;SDS011;45067;44.654;20.200;2023-06-22T09:39:48;11.70;;;9.35;;
59294;SDS011;45067;44.654;20.200;2023-06-22T09:42:14;13.88;;;9.85;;
59294;SDS011;45067;44.654;20.200;2023-06-22T09:44:40;10.05;;;9.05;;
59294;SDS011;45067;44.654;20.200;2023-06-22T09:47:06;12.23;;;9.93;;
59294;SDS011;45067;44.654;20.200;2023-06-22T09:49:32;12.65;;;9.98;;
59294;SDS011;45067;44.654;20.200;2023-06-22T09:51:58;11.02;;;9.93;;
59294;SDS011;45067;44.654;20.200;2023-06-22T09:54:25;14.35;;;10.38;;
59294;SDS011;45067;44.654;20.200;2023-06-22T09:56:51;11.55;;;9.93;;
59294;SDS011;45067;44.654;20.200;2023-06-22T09:59:17;12.45;;;9.60;;
59294;SDS011;45067;44.654;20.200;2023-06-22T10:01:44;10.93;;;9.82;;
59294;SDS011;45067;44.654;20.200;2023-06-22T10:04:10;12.77;;;11.32;;
59294;SDS011;45067;44.654;20.200;2023-06-22T10:06:36;10.68;;;8.90;;
59294;SDS011;45067;44.654;20.200;2023-06-22T10:09:05;14.65;;;11.52;;
59294;SDS011;45067;44.654;20.200;2023-06-22T10:11:31;14.20;;;10.15;;
59294;SDS011;45067;44.654;20.200;2023-06-22T10:14:00;11.07;;;9.38;;
59294;SDS011;45067;44.654;20.200;2023-06-22T10:16:32;12.85;;;10.75;;
59294;SDS011;45067;44.654;20.200;2023-06-22T10:19:00;12.20;;;10.05;;
59294;SDS011;45067;44.654;20.200;2023-06-22T10:21:26;12.35;;;11.07;;
59294;SDS011;45067;44.654;20.200;2023-06-22T10:23:53;11.82;;;9.23;;
59294;SDS011;45067;44.654;20.200;2023-06-22T10:26:20;14.43;;;11.05;;
59294;SDS011;45067;44.654;20.200;2023-06-22T10:28:46;12.38;;;9.18;;
59294;SDS011;45067;44.654;20.200;2023-06-22T10:31:12;14.95;;;10.80;;
59294;SDS011;45067;44.654;20.200;2023-06-22T10:33:39;12.35;;;9.77;;
59294;SDS011;45067;44.654;20.200;2023-06-22T10:36:06;10.65;;;9.05;;
59294;SDS011;45067;44.654;20.200;2023-06-22T10:38:32;12.07;;;9.95;;
59294;SDS011;45067;44.654;20.200;2023-06-22T10:40:58;10.93;;;8.93;;
59294;SDS011;45067;44.654;20.200;2023-06-22T10:43:24;10.23;;;9.07;;
59294;SDS011;45067;44.654;20.200;2023-06-22T10:45:50;11.63;;;10.00;;
59294;SDS011;45067;44.654;20.200;2023-06-22T10:48:17;10.43;;;8.75;;
59294;SDS011;45067;44.654;20.200;2023-06-22T10:50:43;10.35;;;9.13;;
59294;SDS011;45067;44.654;20.200;2023-06-22T10:53:09;10.50;;;9.27;;
59294;SDS011;45067;44.654;20.200;2023-06-22T10:55:35;9.45;;;8.55;;
59294;SDS011;45067;44.654;20.200;2023-06-22T10:58:01;9.75;;;8.32;;
59294;SDS011;45067;44.654;20.200;2023-06-22T11:00:27;10.90;;;9.15;;
59294;SDS011;45067;44.654;20.200;2023-06-22T11:02:53;12.93;;;9.25;;
59294;SDS011;45067;44.654;20.200;2023-06-22T11:05:19;13.80;;;12.40;;
59294;SDS011;45067;44.654;20.200;2023-06-22T11:07:45;13.13;;;10.45;;
59294;SDS011;45067;44.654;20.200;2023-06-22T11:10:13;10.93;;;8.90;;
59294;SDS011;45067;44.654;20.200;2023-06-22T11:12:39;11.40;;;8.35;;
59294;SDS011;45067;44.654;20.200;2023-06-22T11:15:07;10.32;;;8.90;;
59294;SDS011;45067;44.654;20.200;2023-06-22T11:17:34;16.27;;;9.05;;
59294;SDS011;45067;44.654;20.200;2023-06-22T11:20:00;10.20;;;8.30;;
59294;SDS011;45067;44.654;20.200;2023-06-22T11:22:26;9.25;;;8.05;;
59294;SDS011;45067;44.654;20.200;2023-06-22T11:24:52;9.52;;;8.20;;
59294;SDS011;45067;44.654;20.200;2023-06-22T11:27:18;10.75;;;9.38;;
59294;SDS011;45067;44.654;20.200;2023-06-22T11:29:44;10.05;;;7.90;;
59294;SDS011;45067;44.654;20.200;2023-06-22T11:32:11;12.25;;;8.75;;
59294;SDS011;45067;44.654;20.200;2023-06-22T11:34:37;9.88;;;8.30;;
59294;SDS011;45067;44.654;20.200;2023-06-22T11:37:03;17.70;;;8.57;;
59294;SDS011;45067;44.654;20.200;2023-06-22T11:39:29;10.38;;;9.27;;
59294;SDS011;45067;44.654;20.200;2023-06-22T11:41:55;12.65;;;8.70;;
59294;SDS011;45067;44.654;20.200;2023-06-22T11:44:21;10.55;;;8.65;;
59294;SDS011;45067;44.654;20.200;2023-06-22T11:46:47;9.55;;;8.52;;
59294;SDS011;45067;44.654;20.200;2023-06-22T11:49:13;9.55;;;8.60;;
59294;SDS011;45067;44.654;20.200;2023-06-22T11:51:39;9.52;;;8.52;;
59294;SDS011;45067;44.654;20.200;2023-06-22T11:54:05;11.07;;;9.13;;
59294;SDS011;45067;44.654;20.200;2023-06-22T11:56:32;12.73;;;9.18;;
59294;SDS011;45067;44.654;20.200;2023-06-22T11:58:58;13.63;;;9.73;;
59294;SDS011;45067;44.654;20.200;2023-06-22T12:01:24;15.90;;;8.68;;
59294;SDS011;45067;44.654;20.200;2023-06-22T12:03:50;11.70;;;9.20;;
59294;SDS011;45067;44.654;20.200;2023-06-22T12:06:17;11.00;;;8.93;;
59294;SDS011;45067;44.654;20.200;2023-06-22T12:08:44;12.43;;;9.70;;
59294;SDS011;45067;44.654;20.200;2023-06-22T12:11:10;11.77;;;9.38;;
59294;SDS011;45067;44.654;20.200;2023-06-22T12:13:36;10.77;;;9.02;;
59294;SDS011;45067;44.654;20.200;2023-06-22T12:16:02;11.82;;;9.18;;
59294;SDS011;45067;44.654;20.200;2023-06-22T12:18:28;11.15;;;9.52;;
59294;SDS011;45067;44.654;20.200;2023-06-22T12:20:54;12.65;;;10.23;;
59294;SDS011;45067;44.654;20.200;2023-06-22T12:23:21;11.73;;;9.57;;
59294;SDS011;45067;44.654;20.200;2023-06-22T12:25:47;10.15;;;8.38;;
59294;SDS011;45067;44.654;20.200;2023-06-22T12:28:13;10.65;;;8.65;;
59294;SDS011;45067;44.654;20.200;2023-06-22T12:30:39;9.38;;;8.48;;
59294;SDS011;45067;44.654;20.200;2023-06-22T12:33:05;10.90;;;9.38;;
59294;SDS011;45067;44.654;20.200;2023-06-22T12:35:31;11.73;;;9.10;;
59294;SDS011;45067;44.654;20.200;2023-06-22T12:37:57;10.38;;;9.32;;
59294;SDS011;45067;44.654;20.200;2023-06-22T12:40:23;12.02;;;9.93;;
59294;SDS011;45067;44.654;20.200;2023-06-22T12:42:49;11.82;;;9.48;;
59294;SDS011;45067;44.654;20.200;2023-06-22T12:45:15;10.77;;;9.40;;
59294;SDS011;45067;44.654;20.200;2023-06-22T12:47:42;10.68;;;9.55;;
59294;SDS011;45067;44.654;20.200;2023-06-22T12:50:08;10.77;;;9.40;;
59294;SDS011;45067;44.654;20.200;2023-06-22T12:52:36;10.65;;;9.10;;
59294;SDS011;45067;44.654;20.200;2023-06-22T12:55:04;10.43;;;9.27;;
59294;SDS011;45067;44.654;20.200;2023-06-22T12:57:30;11.73;;;9.50;;
59294;SDS011;45067;44.654;20.200;2023-06-22T12:59:56;11.93;;;9.45;;
59294;SDS011;45067;44.654;20.200;2023-06-22T13:02:23;11.10;;;9.90;;
59294;SDS011;45067;44.654;20.200;2023-06-22T13:04:49;12.20;;;10.18;;
59294;SDS011;45067;44.654;20.200;2023-06-22T13:07:15;10.82;;;9.82;;
59294;SDS011;45067;44.654;20.200;2023-06-22T13:09:41;11.57;;;10.18;;
59294;SDS011;45067;44.654;20.200;2023-06-22T13:12:08;11.20;;;9.32;;
59294;SDS011;45067;44.654;20.200;2023-06-22T13:14:34;11.73;;;10.35;;
59294;SDS011;45067;44.654;20.200;2023-06-22T13:17:00;12.88;;;9.95;;
59294;SDS011;45067;44.654;20.200;2023-06-22T13:19:26;12.90;;;9.57;;
59294;SDS011;45067;44.654;20.200;2023-06-22T13:21:57;14.23;;;10.18;;
59294;SDS011;45067;44.654;20.200;2023-06-22T13:24:23;14.15;;;10.00;;
59294;SDS011;45067;44.654;20.200;2023-06-22T13:26:49;16.48;;;11.18;;
59294;SDS011;45067;44.654;20.200;2023-06-22T13:29:15;12.90;;;10.43;;
59294;SDS011;45067;44.654;20.200;2023-06-22T13:34:44;15.30;;;9.65;;
59294;SDS011;45067;44.654;20.200;2023-06-22T13:37:11;15.07;;;9.45;;
59294;SDS011;45067;44.654;20.200;2023-06-22T13:39:37;15.45;;;10.00;;
59294;SDS011;45067;44.654;20.200;2023-06-22T13:42:03;14.85;;;11.35;;
59294;SDS011;45067;44.654;20.200;2023-06-22T13:44:29;11.23;;;10.13;;
59294;SDS011;45067;44.654;20.200;2023-06-22T13:46:55;13.35;;;10.18;;
59294;SDS011;45067;44.654;20.200;2023-06-22T13:49:21;13.32;;;10.40;;
59294;SDS011;45067;44.654;20.200;2023-06-22T13:51:48;11.73;;;10.45;;
59294;SDS011;45067;44.654;20.200;2023-06-22T13:54:14;12.20;;;10.40;;
59294;SDS011;45067;44.654;20.200;2023-06-22T13:56:41;13.90;;;10.73;;
59294;SDS011;45067;44.654;20.200;2023-06-22T13:59:07;17.00;;;9.98;;
59294;SDS011;45067;44.654;20.200;2023-06-22T14:04:38;14.35;;;10.82;;
59294;SDS011;45067;44.654;20.200;2023-06-22T14:07:04;15.00;;;10.45;;
59294;SDS011;45067;44.654;20.200;2023-06-22T14:09:30;13.55;;;10.98;;
59294;SDS011;45067;44.654;20.200;2023-06-22T14:11:56;11.65;;;10.45;;
59294;SDS011;45067;44.654;20.200;2023-06-22T14:14:23;11.95;;;10.75;;
59294;SDS011;45067;44.654;20.200;2023-06-22T14:19:52;14.90;;;10.75;;
59294;SDS011;45067;44.654;20.200;2023-06-22T14:22:19;13.00;;;10.40;;
59294;SDS011;45067;44.654;20.200;2023-06-22T14:24:45;16.67;;;11.43;;
59294;SDS011;45067;44.654;20.200;2023-06-22T14:27:11;12.15;;;10.55;;
59294;SDS011;45067;44.654;20.200;2023-06-22T14:29:37;11.13;;;9.75;;